MMUNTNCM

Guest
Details From MMUN - Cancun Intl
To TNCM - St Maarten - Princess Juliana Intl
Flight Number -
Tags Generated
Created
Modified
Stats Distance 1,356 nm / 2,512 km
Max Altitude 0 ft / 0 m
Waypoints 6
Social Downloads 3
Likes 0
Share VATSIM

Download

Looking for another format? Having issues loading an existing format? Contact us
Advertisement - Login to hide

Notes

Generated

Route

MMUN NBW01 PIXOK VACHI PJM02 TNCM

ID Type Via Altitude Latitude Longitude Leg Dist Tot Dist Heading (true) Name
O MMUN APT - 0 ft / 0 m 21.05496˚ -86.88084˚ - 0 nm - -
NBW01 FIX - 0 ft / 0 m 19.89351˚ -75.21543˚ 659 nm 659 nm 94° / 98° -
PIXOK FIX - 0 ft / 0 m 19.20306˚ -70.69778˚ 259 nm 918 nm 98° / 100° -
VACHI FIX - 0 ft / 0 m 18.59128˚ -67.31292˚ 195 nm 1114 nm 100° / 101° -
PJM02 FIX - 0 ft / 0 m 18.03461˚ -63.15309˚ 239 nm 1354 nm 97° / 99° -
O TNCM APT - 0 ft / 0 m 18.03937˚ -63.11961˚ 1 nm 1356 nm 81° / 82° -

Altitude Profile

Advertisement - Login to hide

Weather


0- 5 10 15 20 25 30 35+ Temperature / ° C

Clouds and Precipitation
Forecast for 2017-12-12 00:00 UTC. Updated 2 hours ago

Ground ~20,000 ft ~40,000 ft Winds

MMUN

Details ICAO MMUN (CUN)
Name Cancun International
Region Mexico
Timezone America/Cancun (UTC-5.0)
Stats Elevation 24 ft / 7 m (AMSL)
Location 21.042287° -86.873333°
Runways 2
Magnetic Variation 1.879° W

METAR

MMUN 112243Z 32005KT 7SM FEW020 BKN200 21/18 A3016 RMK 8/508 AC

Decode

TAF

TAF MMUN 111714Z 1118/1224 34015KT P6SM BKN015 BKN070 TX27/1120Z TN17/1212Z TEMPO 1118/1122 6SM -RA FM120100 02001KT P6SM SCT020 SCT100 FM121700 08010KT P6SM SCT080

Decode

Departure Runways

ID Width Length Bearing (true) Bearing (mag) Surface Threshold Offset Overrun Length
12L 148 ft / 45 m 9,150 ft / 2,789 m 123.62° 125.50° Asphalt 0 ft / 0 m 200 ft / 61 m
12R 190 ft / 58 m 11,459 ft / 3,493 m 123.84° 125.72° Asphalt 0 ft / 0 m 200 ft / 61 m
30L 190 ft / 58 m 11,459 ft / 3,493 m 303.85° 305.73° Asphalt 0 ft / 0 m 200 ft / 61 m
30R 148 ft / 45 m 9,150 ft / 2,789 m 303.63° 305.51° Asphalt 0 ft / 0 m 200 ft / 61 m

TNCM

Details ICAO TNCM (SXM)
Name St Maarten - Princess Juliana Intl
Region Caribbean Netherlands, Aruba, Curaçao, Sint Maarten
Timezone Unknown (UTC+0.0)
Stats Elevation 12 ft / 4 m (AMSL)
Location 18.040889° -63.108974°
Runways 1
Magnetic Variation 14.325° W

METAR

TNCM 112300Z 06007KT 020V090 9999 FEW018 26/21 Q1012 NOSIG RMK A2990

Decode

TAF

TAF TNCM 111141Z 1112/1212 06010KT P6SM FEW020

Decode

Destination Runways

ID Width Length Bearing (true) Bearing (mag) Surface Threshold Offset Overrun Length
10 148 ft / 45 m 7,464 ft / 2,275 m 81.43° 95.75° Asphalt 0 ft / 0 m 151 ft / 46 m
28 148 ft / 45 m 7,464 ft / 2,275 m 261.44° 275.76° Asphalt 397 ft / 121 m 0 ft / 0 m

Popular Alternatives